sensor_id;sensor_type;location;lat;lon;timestamp;temperature;humidity
30889;DHT22;51092;50.874;7.024;2023-04-03T00:00:07;4.20;96.80
30889;DHT22;51092;50.874;7.024;2023-04-03T00:01:11;4.10;96.90
30889;DHT22;51092;50.874;7.024;2023-04-03T00:02:12;4.10;97.00
30889;DHT22;51092;50.874;7.024;2023-04-03T00:03:15;4.10;97.00
30889;DHT22;51092;50.874;7.024;2023-04-03T00:04:18;4.10;97.10
30889;DHT22;51092;50.874;7.024;2023-04-03T00:05:20;4.10;96.90
30889;DHT22;51092;50.874;7.024;2023-04-03T00:06:22;4.10;96.80
30889;DHT22;51092;50.874;7.024;2023-04-03T00:07:26;4.00;97.10
30889;DHT22;51092;50.874;7.024;2023-04-03T00:08:27;4.00;97.10
30889;DHT22;51092;50.874;7.024;2023-04-03T00:09:31;4.00;97.00
30889;DHT22;51092;50.874;7.024;2023-04-03T00:10:33;4.00;97.20
30889;DHT22;51092;50.874;7.024;2023-04-03T00:11:36;4.10;97.20
30889;DHT22;51092;50.874;7.024;2023-04-03T00:12:37;4.00;97.20
30889;DHT22;51092;50.874;7.024;2023-04-03T00:13:40;4.10;97.30
30889;DHT22;51092;50.874;7.024;2023-04-03T00:14:42;4.00;97.60
30889;DHT22;51092;50.874;7.024;2023-04-03T00:15:44;4.10;97.30
30889;DHT22;51092;50.874;7.024;2023-04-03T00:16:46;4.00;97.20
30889;DHT22;51092;50.874;7.024;2023-04-03T00:17:48;4.00;97.40
30889;DHT22;51092;50.874;7.024;2023-04-03T00:18:50;4.10;97.10
30889;DHT22;51092;50.874;7.024;2023-04-03T00:19:53;4.10;97.00
30889;DHT22;51092;50.874;7.024;2023-04-03T00:20:55;4.20;96.80
30889;DHT22;51092;50.874;7.024;2023-04-03T00:21:58;4.10;97.10
30889;DHT22;51092;50.874;7.024;2023-04-03T00:22:59;4.10;97.00
30889;DHT22;51092;50.874;7.024;2023-04-03T00:24:02;4.10;97.10
30889;DHT22;51092;50.874;7.024;2023-04-03T00:25:04;4.10;97.20
30889;DHT22;51092;50.874;7.024;2023-04-03T00:26:07;4.10;97.20
30889;DHT22;51092;50.874;7.024;2023-04-03T00:27:08;4.10;97.20
30889;DHT22;51092;50.874;7.024;2023-04-03T00:28:12;4.10;97.40
30889;DHT22;51092;50.874;7.024;2023-04-03T00:29:13;4.10;97.60
30889;DHT22;51092;50.874;7.024;2023-04-03T00:30:19;4.10;97.70
30889;DHT22;51092;50.874;7.024;2023-04-03T00:31:21;4.10;97.60
30889;DHT22;51092;50.874;7.024;2023-04-03T00:32:24;4.10;97.70
30889;DHT22;51092;50.874;7.024;2023-04-03T00:33:25;4.10;97.40
30889;DHT22;51092;50.874;7.024;2023-04-03T00:34:28;4.00;97.50
30889;DHT22;51092;50.874;7.024;2023-04-03T00:35:31;4.00;97.70
30889;DHT22;51092;50.874;7.024;2023-04-03T00:36:33;4.00;97.70
30889;DHT22;51092;50.874;7.024;2023-04-03T00:37:35;4.00;97.60
30889;DHT22;51092;50.874;7.024;2023-04-03T00:38:38;4.00;97.70
30889;DHT22;51092;50.874;7.024;2023-04-03T00:39:40;3.90;98.00
30889;DHT22;51092;50.874;7.024;2023-04-03T00:40:44;3.90;98.10
30889;DHT22;51092;50.874;7.024;2023-04-03T00:41:46;3.90;98.20
30889;DHT22;51092;50.874;7.024;2023-04-03T00:42:51;3.90;98.00
30889;DHT22;51092;50.874;7.024;2023-04-03T00:43:53;3.90;98.20
30889;DHT22;51092;50.874;7.024;2023-04-03T00:46:41;3.90;98.20
30889;DHT22;51092;50.874;7.024;2023-04-03T00:47:42;3.90;98.20
30889;DHT22;51092;50.874;7.024;2023-04-03T00:48:46;3.80;98.30
30889;DHT22;51092;50.874;7.024;2023-04-03T00:49:50;3.80;98.50
30889;DHT22;51092;50.874;7.024;2023-04-03T00:50:53;3.80;98.60
30889;DHT22;51092;50.874;7.024;2023-04-03T00:51:57;3.80;98.70
30889;DHT22;51092;50.874;7.024;2023-04-03T00:52:59;3.80;98.30
30889;DHT22;51092;50.874;7.024;2023-04-03T00:54:03;3.80;98.60
30889;DHT22;51092;50.874;7.024;2023-04-03T00:55:08;3.80;98.50
30889;DHT22;51092;50.874;7.024;2023-04-03T00:56:13;3.80;98.80
30889;DHT22;51092;50.874;7.024;2023-04-03T00:57:17;3.70;98.70
30889;DHT22;51092;50.874;7.024;2023-04-03T00:58:20;3.70;98.30
30889;DHT22;51092;50.874;7.024;2023-04-03T00:59:28;3.70;98.30
30889;DHT22;51092;50.874;7.024;2023-04-03T01:00:31;3.70;98.40
30889;DHT22;51092;50.874;7.024;2023-04-03T01:01:34;3.70;98.10
30889;DHT22;51092;50.874;7.024;2023-04-03T01:02:37;3.70;98.10
30889;DHT22;51092;50.874;7.024;2023-04-03T01:03:42;3.70;98.30
30889;DHT22;51092;50.874;7.024;2023-04-03T01:04:44;3.70;97.90
30889;DHT22;51092;50.874;7.024;2023-04-03T01:05:48;3.70;98.10
30889;DHT22;51092;50.874;7.024;2023-04-03T01:06:51;3.70;98.00
30889;DHT22;51092;50.874;7.024;2023-04-03T01:07:54;3.80;97.50
30889;DHT22;51092;50.874;7.024;2023-04-03T01:08:56;3.80;97.50
30889;DHT22;51092;50.874;7.024;2023-04-03T01:10:02;3.80;97.40
30889;DHT22;51092;50.874;7.024;2023-04-03T01:11:04;3.80;97.30
30889;DHT22;51092;50.874;7.024;2023-04-03T01:12:14;3.70;97.40
30889;DHT22;51092;50.874;7.024;2023-04-03T01:13:23;3.70;97.30
30889;DHT22;51092;50.874;7.024;2023-04-03T01:14:26;3.60;97.50
30889;DHT22;51092;50.874;7.024;2023-04-03T01:15:27;3.60;97.70
30889;DHT22;51092;50.874;7.024;2023-04-03T01:16:31;3.60;97.80
30889;DHT22;51092;50.874;7.024;2023-04-03T01:17:35;3.60;97.70
30889;DHT22;51092;50.874;7.024;2023-04-03T01:18:39;3.60;97.50
30889;DHT22;51092;50.874;7.024;2023-04-03T01:19:43;3.60;97.60
30889;DHT22;51092;50.874;7.024;2023-04-03T01:21:37;3.60;97.60
30889;DHT22;51092;50.874;7.024;2023-04-03T01:22:50;3.50;97.80
30889;DHT22;51092;50.874;7.024;2023-04-03T01:24:11;3.50;97.70
30889;DHT22;51092;50.874;7.024;2023-04-03T01:25:16;3.50;97.70
30889;DHT22;51092;50.874;7.024;2023-04-03T01:26:18;3.50;97.70
30889;DHT22;51092;50.874;7.024;2023-04-03T01:27:21;3.50;97.80
30889;DHT22;51092;50.874;7.024;2023-04-03T01:28:24;3.50;97.70
30889;DHT22;51092;50.874;7.024;2023-04-03T01:29:26;3.50;97.90
30889;DHT22;51092;50.874;7.024;2023-04-03T01:30:33;3.40;98.00
30889;DHT22;51092;50.874;7.024;2023-04-03T01:31:47;3.40;98.00
30889;DHT22;51092;50.874;7.024;2023-04-03T01:32:50;3.40;97.90
30889;DHT22;51092;50.874;7.024;2023-04-03T01:33:51;3.40;98.00
30889;DHT22;51092;50.874;7.024;2023-04-03T01:34:54;3.40;97.90
30889;DHT22;51092;50.874;7.024;2023-04-03T01:35:55;3.40;97.90
30889;DHT22;51092;50.874;7.024;2023-04-03T01:36:58;3.40;97.90
30889;DHT22;51092;50.874;7.024;2023-04-03T01:37:59;3.40;97.90
30889;DHT22;51092;50.874;7.024;2023-04-03T01:39:02;3.30;98.10
30889;DHT22;51092;50.874;7.024;2023-04-03T01:40:06;3.30;98.10
30889;DHT22;51092;50.874;7.024;2023-04-03T01:41:09;3.30;98.20
30889;DHT22;51092;50.874;7.024;2023-04-03T01:42:11;3.30;98.30
30889;DHT22;51092;50.874;7.024;2023-04-03T01:43:13;3.20;98.30
30889;DHT22;51092;50.874;7.024;2023-04-03T01:44:15;3.20;98.50
30889;DHT22;51092;50.874;7.024;2023-04-03T01:45:17;3.20;98.40
30889;DHT22;51092;50.874;7.024;2023-04-03T01:46:19;3.20;98.50
30889;DHT22;51092;50.874;7.024;2023-04-03T01:47:23;3.10;98.90
30889;DHT22;51092;50.874;7.024;2023-04-03T01:48:25;3.10;99.10
30889;DHT22;51092;50.874;7.024;2023-04-03T01:49:28;3.10;99.20
30889;DHT22;51092;50.874;7.024;2023-04-03T01:50:29;3.10;99.40
30889;DHT22;51092;50.874;7.024;2023-04-03T01:51:31;3.00;99.50
30889;DHT22;51092;50.874;7.024;2023-04-03T01:52:33;3.00;99.70
30889;DHT22;51092;50.874;7.024;2023-04-03T01:53:34;3.00;99.70
30889;DHT22;51092;50.874;7.024;2023-04-03T01:54:36;2.90;99.80
30889;DHT22;51092;50.874;7.024;2023-04-03T01:55:38;2.90;99.80
30889;DHT22;51092;50.874;7.024;2023-04-03T01:56:40;2.90;99.70
30889;DHT22;51092;50.874;7.024;2023-04-03T01:57:42;2.90;99.70
30889;DHT22;51092;50.874;7.024;2023-04-03T01:58:44;2.80;99.80
30889;DHT22;51092;50.874;7.024;2023-04-03T01:59:46;2.80;99.80
30889;DHT22;51092;50.874;7.024;2023-04-03T02:00:48;2.80;99.80
30889;DHT22;51092;50.874;7.024;2023-04-03T02:01:50;2.80;99.70
30889;DHT22;51092;50.874;7.024;2023-04-03T02:02:53;2.80;99.60
30889;DHT22;51092;50.874;7.024;2023-04-03T02:03:55;2.80;99.50
30889;DHT22;51092;50.874;7.024;2023-04-03T02:04:57;2.80;99.60
30889;DHT22;51092;50.874;7.024;2023-04-03T02:05:59;2.80;99.50
30889;DHT22;51092;50.874;7.024;2023-04-03T02:07:02;2.80;99.60
30889;DHT22;51092;50.874;7.024;2023-04-03T02:08:03;2.70;99.50
30889;DHT22;51092;50.874;7.024;2023-04-03T02:09:06;2.80;99.00
30889;DHT22;51092;50.874;7.024;2023-04-03T02:10:08;2.80;98.90
30889;DHT22;51092;50.874;7.024;2023-04-03T02:11:11;2.80;98.80
30889;DHT22;51092;50.874;7.024;2023-04-03T02:12:12;2.80;98.70
30889;DHT22;51092;50.874;7.024;2023-04-03T02:13:15;2.80;98.70
30889;DHT22;51092;50.874;7.024;2023-04-03T02:14:17;2.80;98.80
30889;DHT22;51092;50.874;7.024;2023-04-03T02:15:19;2.80;98.90
30889;DHT22;51092;50.874;7.024;2023-04-03T02:16:21;2.80;99.00
30889;DHT22;51092;50.874;7.024;2023-04-03T02:17:24;2.80;98.80
30889;DHT22;51092;50.874;7.024;2023-04-03T02:18:26;2.80;98.70
30889;DHT22;51092;50.874;7.024;2023-04-03T02:19:29;2.80;98.70
30889;DHT22;51092;50.874;7.024;2023-04-03T02:20:30;2.70;98.80
30889;DHT22;51092;50.874;7.024;2023-04-03T02:21:33;2.70;98.70
30889;DHT22;51092;50.874;7.024;2023-04-03T02:22:34;2.70;98.80
30889;DHT22;51092;50.874;7.024;2023-04-03T02:23:37;2.70;99.00
30889;DHT22;51092;50.874;7.024;2023-04-03T02:24:38;2.70;99.00
30889;DHT22;51092;50.874;7.024;2023-04-03T02:25:41;2.70;99.00
30889;DHT22;51092;50.874;7.024;2023-04-03T02:26:43;2.70;99.10
30889;DHT22;51092;50.874;7.024;2023-04-03T02:27:45;2.60;99.30
30889;DHT22;51092;50.874;7.024;2023-04-03T02:28:46;2.60;99.30
30889;DHT22;51092;50.874;7.024;2023-04-03T02:29:49;2.60;99.30
30889;DHT22;51092;50.874;7.024;2023-04-03T02:30:51;2.60;99.30
30889;DHT22;51092;50.874;7.024;2023-04-03T02:31:55;2.60;99.50
30889;DHT22;51092;50.874;7.024;2023-04-03T02:32:56;2.60;99.50
30889;DHT22;51092;50.874;7.024;2023-04-03T02:34:00;2.60;99.50
30889;DHT22;51092;50.874;7.024;2023-04-03T02:35:03;2.50;99.60
30889;DHT22;51092;50.874;7.024;2023-04-03T02:36:06;2.50;99.90
30889;DHT22;51092;50.874;7.024;2023-04-03T02:37:09;2.50;99.90
30889;DHT22;51092;50.874;7.024;2023-04-03T02:38:10;2.50;99.90
30889;DHT22;51092;50.874;7.024;2023-04-03T02:39:13;2.40;99.90
30889;DHT22;51092;50.874;7.024;2023-04-03T02:40:15;2.50;99.90
30889;DHT22;51092;50.874;7.024;2023-04-03T02:41:17;2.40;99.90
30889;DHT22;51092;50.874;7.024;2023-04-03T02:42:19;2.40;99.90
30889;DHT22;51092;50.874;7.024;2023-04-03T02:43:21;2.40;99.90
30889;DHT22;51092;50.874;7.024;2023-04-03T02:44:22;2.40;99.90
30889;DHT22;51092;50.874;7.024;2023-04-03T02:45:25;2.40;99.90
30889;DHT22;51092;50.874;7.024;2023-04-03T02:46:27;2.30;99.90
30889;DHT22;51092;50.874;7.024;2023-04-03T02:47:29;2.30;99.90
30889;DHT22;51092;50.874;7.024;2023-04-03T02:48:31;2.20;99.90
30889;DHT22;51092;50.874;7.024;2023-04-03T02:49:35;2.30;99.90
30889;DHT22;51092;50.874;7.024;2023-04-03T02:50:36;2.20;99.90
30889;DHT22;51092;50.874;7.024;2023-04-03T02:51:39;2.20;99.90
30889;DHT22;51092;50.874;7.024;2023-04-03T02:52:40;2.20;99.90
30889;DHT22;51092;50.874;7.024;2023-04-03T02:53:43;2.20;99.90
30889;DHT22;51092;50.874;7.024;2023-04-03T02:54:44;2.10;99.90
30889;DHT22;51092;50.874;7.024;2023-04-03T02:55:47;2.20;99.90
30889;DHT22;51092;50.874;7.024;2023-04-03T02:56:49;2.20;99.90
30889;DHT22;51092;50.874;7.024;2023-04-03T02:57:51;2.10;99.90
30889;DHT22;51092;50.874;7.024;2023-04-03T02:58:53;2.20;99.90
30889;DHT22;51092;50.874;7.024;2023-04-03T02:59:56;2.10;99.90
30889;DHT22;51092;50.874;7.024;2023-04-03T03:00:57;2.10;99.90
30889;DHT22;51092;50.874;7.024;2023-04-03T03:01:59;2.10;99.90
30889;DHT22;51092;50.874;7.024;2023-04-03T03:03:01;2.00;99.90
30889;DHT22;51092;50.874;7.024;2023-04-03T03:04:03;2.00;99.90
30889;DHT22;51092;50.874;7.024;2023-04-03T03:05:07;2.00;99.90
30889;DHT22;51092;50.874;7.024;2023-04-03T03:06:11;2.00;99.90
30889;DHT22;51092;50.874;7.024;2023-04-03T03:07:13;2.00;99.90
30889;DHT22;51092;50.874;7.024;2023-04-03T03:08:15;2.00;99.90
30889;DHT22;51092;50.874;7.024;2023-04-03T03:09:17;1.90;99.90
30889;DHT22;51092;50.874;7.024;2023-04-03T03:10:20;2.00;99.90
30889;DHT22;51092;50.874;7.024;2023-04-03T03:11:21;2.00;99.90
30889;DHT22;51092;50.874;7.024;2023-04-03T03:12:24;1.90;99.90
30889;DHT22;51092;50.874;7.024;2023-04-03T03:13:26;2.00;99.90
30889;DHT22;51092;50.874;7.024;2023-04-03T03:14:28;2.00;99.90
30889;DHT22;51092;50.874;7.024;2023-04-03T03:15:30;2.00;99.90
30889;DHT22;51092;50.874;7.024;2023-04-03T03:16:32;2.00;99.90
30889;DHT22;51092;50.874;7.024;2023-04-03T03:17:34;2.00;99.90
30889;DHT22;51092;50.874;7.024;2023-04-03T03:18:37;2.00;99.90
30889;DHT22;51092;50.874;7.024;2023-04-03T03:19:38;2.00;99.90
30889;DHT22;51092;50.874;7.024;2023-04-03T03:20:42;2.00;99.90
30889;DHT22;51092;50.874;7.024;2023-04-03T03:21:44;2.00;99.90
30889;DHT22;51092;50.874;7.024;2023-04-03T03:22:47;2.00;99.90
30889;DHT22;51092;50.874;7.024;2023-04-03T03:23:49;1.90;99.90
30889;DHT22;51092;50.874;7.024;2023-04-03T03:24:51;1.90;99.90
30889;DHT22;51092;50.874;7.024;2023-04-03T03:25:55;1.90;99.90
30889;DHT22;51092;50.874;7.024;2023-04-03T03:26:57;1.90;99.90
30889;DHT22;51092;50.874;7.024;2023-04-03T03:28:00;1.90;99.90
30889;DHT22;51092;50.874;7.024;2023-04-03T03:29:01;1.90;99.90
30889;DHT22;51092;50.874;7.024;2023-04-03T03:30:05;1.90;99.90
30889;DHT22;51092;50.874;7.024;2023-04-03T03:31:08;1.90;99.90
30889;DHT22;51092;50.874;7.024;2023-04-03T03:32:11;1.90;99.90
30889;DHT22;51092;50.874;7.024;2023-04-03T03:33:12;1.90;99.90
30889;DHT22;51092;50.874;7.024;2023-04-03T03:34:15;1.90;99.90
30889;DHT22;51092;50.874;7.024;2023-04-03T03:35:16;1.90;99.90
30889;DHT22;51092;50.874;7.024;2023-04-03T03:36:20;1.90;99.90
30889;DHT22;51092;50.874;7.024;2023-04-03T03:37:22;1.90;99.90
30889;DHT22;51092;50.874;7.024;2023-04-03T03:38:24;1.90;99.90
30889;DHT22;51092;50.874;7.024;2023-04-03T03:39:26;1.90;99.90
30889;DHT22;51092;50.874;7.024;2023-04-03T03:40:27;1.90;99.90
30889;DHT22;51092;50.874;7.024;2023-04-03T03:41:30;1.90;99.90
30889;DHT22;51092;50.874;7.024;2023-04-03T03:42:31;1.90;99.90
30889;DHT22;51092;50.874;7.024;2023-04-03T03:43:34;1.80;99.90
30889;DHT22;51092;50.874;7.024;2023-04-03T03:44:35;1.80;99.90
30889;DHT22;51092;50.874;7.024;2023-04-03T03:45:38;1.80;99.90
30889;DHT22;51092;50.874;7.024;2023-04-03T03:46:40;1.80;99.90
30889;DHT22;51092;50.874;7.024;2023-04-03T03:47:42;1.80;99.90
30889;DHT22;51092;50.874;7.024;2023-04-03T03:48:44;1.80;99.90
30889;DHT22;51092;50.874;7.024;2023-04-03T03:49:46;1.80;99.90
30889;DHT22;51092;50.874;7.024;2023-04-03T03:50:48;1.80;99.90
30889;DHT22;51092;50.874;7.024;2023-04-03T03:51:52;1.80;99.90
30889;DHT22;51092;50.874;7.024;2023-04-03T03:52:55;1.80;99.90
30889;DHT22;51092;50.874;7.024;2023-04-03T03:53:57;1.70;99.90
30889;DHT22;51092;50.874;7.024;2023-04-03T03:54:59;1.70;99.90
30889;DHT22;51092;50.874;7.024;2023-04-03T03:56:01;1.70;99.90
30889;DHT22;51092;50.874;7.024;2023-04-03T03:57:03;1.70;99.90
30889;DHT22;51092;50.874;7.024;2023-04-03T03:58:05;1.70;99.90
30889;DHT22;51092;50.874;7.024;2023-04-03T03:59:06;1.70;99.90
30889;DHT22;51092;50.874;7.024;2023-04-03T04:00:09;1.70;99.90
30889;DHT22;51092;50.874;7.024;2023-04-03T04:01:10;1.70;99.90
30889;DHT22;51092;50.874;7.024;2023-04-03T04:02:12;1.70;99.90
30889;DHT22;51092;50.874;7.024;2023-04-03T04:03:14;1.70;99.90
30889;DHT22;51092;50.874;7.024;2023-04-03T04:04:16;1.70;99.90
30889;DHT22;51092;50.874;7.024;2023-04-03T04:05:18;1.70;99.90
30889;DHT22;51092;50.874;7.024;2023-04-03T04:06:21;1.70;99.90
30889;DHT22;51092;50.874;7.024;2023-04-03T04:07:24;1.70;99.90
30889;DHT22;51092;50.874;7.024;2023-04-03T04:08:29;1.70;99.90
30889;DHT22;51092;50.874;7.024;2023-04-03T04:09:31;1.70;99.90
30889;DHT22;51092;50.874;7.024;2023-04-03T04:10:33;1.70;99.90
30889;DHT22;51092;50.874;7.024;2023-04-03T04:11:35;1.70;99.90
30889;DHT22;51092;50.874;7.024;2023-04-03T04:12:37;1.70;99.90
30889;DHT22;51092;50.874;7.024;2023-04-03T04:13:39;1.70;99.90
30889;DHT22;51092;50.874;7.024;2023-04-03T04:14:41;1.80;99.90
30889;DHT22;51092;50.874;7.024;2023-04-03T04:15:43;1.80;99.90
30889;DHT22;51092;50.874;7.024;2023-04-03T04:16:46;1.80;99.90
30889;DHT22;51092;50.874;7.024;2023-04-03T04:17:48;1.80;99.90
30889;DHT22;51092;50.874;7.024;2023-04-03T04:18:50;1.70;99.90
30889;DHT22;51092;50.874;7.024;2023-04-03T04:19:51;1.70;99.90
30889;DHT22;51092;50.874;7.024;2023-04-03T04:20:54;1.70;99.90
30889;DHT22;51092;50.874;7.024;2023-04-03T04:21:55;1.70;99.90
30889;DHT22;51092;50.874;7.024;2023-04-03T04:22:59;1.70;99.90
30889;DHT22;51092;50.874;7.024;2023-04-03T04:24:01;1.70;99.90
30889;DHT22;51092;50.874;7.024;2023-04-03T04:25:04;1.70;99.90
30889;DHT22;51092;50.874;7.024;2023-04-03T04:26:05;1.80;99.90
30889;DHT22;51092;50.874;7.024;2023-04-03T04:27:22;1.70;99.90
30889;DHT22;51092;50.874;7.024;2023-04-03T04:28:24;1.80;99.90
30889;DHT22;51092;50.874;7.024;2023-04-03T04:29:26;1.80;99.90
30889;DHT22;51092;50.874;7.024;2023-04-03T04:30:27;1.80;99.90
30889;DHT22;51092;50.874;7.024;2023-04-03T04:31:30;1.80;99.90
30889;DHT22;51092;50.874;7.024;2023-04-03T04:32:31;1.80;99.90
30889;DHT22;51092;50.874;7.024;2023-04-03T04:33:34;1.80;99.90
30889;DHT22;51092;50.874;7.024;2023-04-03T04:34:35;1.80;99.90
30889;DHT22;51092;50.874;7.024;2023-04-03T04:35:38;1.80;99.90
30889;DHT22;51092;50.874;7.024;2023-04-03T04:36:39;1.80;99.90
30889;DHT22;51092;50.874;7.024;2023-04-03T04:37:42;1.80;99.90
30889;DHT22;51092;50.874;7.024;2023-04-03T04:38:45;1.80;99.90
30889;DHT22;51092;50.874;7.024;2023-04-03T04:39:47;1.80;99.90
30889;DHT22;51092;50.874;7.024;2023-04-03T04:40:48;1.80;99.90
30889;DHT22;51092;50.874;7.024;2023-04-03T04:41:51;1.80;99.90
30889;DHT22;51092;50.874;7.024;2023-04-03T04:42:52;1.80;99.90
30889;DHT22;51092;50.874;7.024;2023-04-03T04:43:54;1.80;99.90
30889;DHT22;51092;50.874;7.024;2023-04-03T04:44:55;1.80;99.90
30889;DHT22;51092;50.874;7.024;2023-04-03T04:46:02;1.80;99.90
30889;DHT22;51092;50.874;7.024;2023-04-03T04:47:04;1.90;99.90
30889;DHT22;51092;50.874;7.024;2023-04-03T04:48:06;1.80;99.90
30889;DHT22;51092;50.874;7.024;2023-04-03T04:49:08;1.80;99.90
30889;DHT22;51092;50.874;7.024;2023-04-03T04:50:10;1.80;99.90
30889;DHT22;51092;50.874;7.024;2023-04-03T04:51:12;1.80;99.90
30889;DHT22;51092;50.874;7.024;2023-04-03T04:52:15;1.80;99.90
30889;DHT22;51092;50.874;7.024;2023-04-03T04:53:16;1.80;99.90
30889;DHT22;51092;50.874;7.024;2023-04-03T04:54:20;1.80;99.90
30889;DHT22;51092;50.874;7.024;2023-04-03T04:55:22;1.80;99.90
30889;DHT22;51092;50.874;7.024;2023-04-03T04:56:24;1.90;99.90
30889;DHT22;51092;50.874;7.024;2023-04-03T04:57:26;1.90;99.90
30889;DHT22;51092;50.874;7.024;2023-04-03T04:58:29;1.90;99.90
30889;DHT22;51092;50.874;7.024;2023-04-03T04:59:30;1.90;99.90
30889;DHT22;51092;50.874;7.024;2023-04-03T05:00:33;1.90;99.90
30889;DHT22;51092;50.874;7.024;2023-04-03T05:01:34;1.90;99.90
30889;DHT22;51092;50.874;7.024;2023-04-03T05:02:36;1.90;99.90
30889;DHT22;51092;50.874;7.024;2023-04-03T05:03:38;1.90;99.90
30889;DHT22;51092;50.874;7.024;2023-04-03T05:04:40;1.90;99.90
30889;DHT22;51092;50.874;7.024;2023-04-03T05:05:42;1.90;99.90
30889;DHT22;51092;50.874;7.024;2023-04-03T05:06:44;1.90;99.90
30889;DHT22;51092;50.874;7.024;2023-04-03T05:07:46;1.90;99.90
30889;DHT22;51092;50.874;7.024;2023-04-03T05:08:48;1.90;99.90
30889;DHT22;51092;50.874;7.024;2023-04-03T05:09:51;1.90;99.90
30889;DHT22;51092;50.874;7.024;2023-04-03T05:10:54;1.90;99.90
30889;DHT22;51092;50.874;7.024;2023-04-03T05:11:55;2.00;99.90
30889;DHT22;51092;50.874;7.024;2023-04-03T05:12:58;2.00;99.90
30889;DHT22;51092;50.874;7.024;2023-04-03T05:13:59;2.00;99.90
30889;DHT22;51092;50.874;7.024;2023-04-03T05:15:02;2.00;99.90
30889;DHT22;51092;50.874;7.024;2023-04-03T05:16:04;2.00;99.90
30889;DHT22;51092;50.874;7.024;2023-04-03T05:17:07;2.00;99.90
30889;DHT22;51092;50.874;7.024;2023-04-03T05:18:08;2.00;99.90
30889;DHT22;51092;50.874;7.024;2023-04-03T05:19:10;2.00;99.90
30889;DHT22;51092;50.874;7.024;2023-04-03T05:20:12;2.00;99.90
30889;DHT22;51092;50.874;7.024;2023-04-03T05:21:14;2.00;99.90
30889;DHT22;51092;50.874;7.024;2023-04-03T05:22:16;2.00;99.90
30889;DHT22;51092;50.874;7.024;2023-04-03T05:23:19;2.00;99.90
30889;DHT22;51092;50.874;7.024;2023-04-03T05:24:20;2.10;99.90
30889;DHT22;51092;50.874;7.024;2023-04-03T05:25:24;2.00;99.90
30889;DHT22;51092;50.874;7.024;2023-04-03T05:26:26;2.00;99.90
30889;DHT22;51092;50.874;7.024;2023-04-03T05:27:29;2.10;99.90
30889;DHT22;51092;50.874;7.024;2023-04-03T05:28:30;2.00;99.90
30889;DHT22;51092;50.874;7.024;2023-04-03T05:29:33;2.00;99.90
30889;DHT22;51092;50.874;7.024;2023-04-03T05:30:35;2.00;99.90
30889;DHT22;51092;50.874;7.024;2023-04-03T05:31:37;2.10;99.90
30889;DHT22;51092;50.874;7.024;2023-04-03T05:32:40;2.10;99.90
30889;DHT22;51092;50.874;7.024;2023-04-03T05:33:42;2.10;99.90
30889;DHT22;51092;50.874;7.024;2023-04-03T05:34:44;2.10;99.90
30889;DHT22;51092;50.874;7.024;2023-04-03T05:35:46;2.10;99.90
30889;DHT22;51092;50.874;7.024;2023-04-03T05:36:48;2.10;99.90
30889;DHT22;51092;50.874;7.024;2023-04-03T05:37:51;2.10;99.90
30889;DHT22;51092;50.874;7.024;2023-04-03T05:38:53;2.10;99.80
30889;DHT22;51092;50.874;7.024;2023-04-03T05:39:57;2.10;99.70
30889;DHT22;51092;50.874;7.024;2023-04-03T05:41:00;2.10;99.80
30889;DHT22;51092;50.874;7.024;2023-04-03T05:42:02;2.20;99.70
30889;DHT22;51092;50.874;7.024;2023-04-03T05:43:05;2.20;99.60
30889;DHT22;51092;50.874;7.024;2023-04-03T05:44:06;2.20;99.40
30889;DHT22;51092;50.874;7.024;2023-04-03T05:45:09;2.20;99.40
30889;DHT22;51092;50.874;7.024;2023-04-03T05:46:12;2.20;99.30
30889;DHT22;51092;50.874;7.024;2023-04-03T05:47:15;2.20;99.40
30889;DHT22;51092;50.874;7.024;2023-04-03T05:48:16;2.20;99.40
30889;DHT22;51092;50.874;7.024;2023-04-03T05:49:18;2.30;99.20
30889;DHT22;51092;50.874;7.024;2023-04-03T05:50:20;2.30;99.00
30889;DHT22;51092;50.874;7.024;2023-04-03T05:51:25;2.30;99.00
30889;DHT22;51092;50.874;7.024;2023-04-03T05:52:29;2.30;99.00
30889;DHT22;51092;50.874;7.024;2023-04-03T05:53:33;2.30;99.00
30889;DHT22;51092;50.874;7.024;2023-04-03T05:54:35;2.30;99.00
30889;DHT22;51092;50.874;7.024;2023-04-03T05:55:37;2.30;98.80
30889;DHT22;51092;50.874;7.024;2023-04-03T05:56:39;2.30;98.80
30889;DHT22;51092;50.874;7.024;2023-04-03T05:57:41;2.40;98.60
30889;DHT22;51092;50.874;7.024;2023-04-03T05:58:44;2.40;98.50
30889;DHT22;51092;50.874;7.024;2023-04-03T05:59:46;2.40;98.50
30889;DHT22;51092;50.874;7.024;2023-04-03T06:00:49;2.50;98.40
30889;DHT22;51092;50.874;7.024;2023-04-03T06:01:51;2.50;98.30
30889;DHT22;51092;50.874;7.024;2023-04-03T06:02:53;2.50;98.30
30889;DHT22;51092;50.874;7.024;2023-04-03T06:03:55;2.60;98.00
30889;DHT22;51092;50.874;7.024;2023-04-03T06:04:59;2.60;97.80
30889;DHT22;51092;50.874;7.024;2023-04-03T06:06:04;2.60;97.80
30889;DHT22;51092;50.874;7.024;2023-04-03T06:07:08;2.70;97.60
30889;DHT22;51092;50.874;7.024;2023-04-03T06:08:12;2.70;97.50
30889;DHT22;51092;50.874;7.024;2023-04-03T06:09:15;2.70;97.60
30889;DHT22;51092;50.874;7.024;2023-04-03T06:10:17;2.80;97.30
30889;DHT22;51092;50.874;7.024;2023-04-03T06:11:21;2.80;97.20
30889;DHT22;51092;50.874;7.024;2023-04-03T06:12:24;2.80;97.20
30889;DHT22;51092;50.874;7.024;2023-04-03T06:13:27;2.80;97.10
30889;DHT22;51092;50.874;7.024;2023-04-03T06:14:29;2.80;97.20
30889;DHT22;51092;50.874;7.024;2023-04-03T06:15:32;2.80;97.10
30889;DHT22;51092;50.874;7.024;2023-04-03T06:16:33;2.90;96.90
30889;DHT22;51092;50.874;7.024;2023-04-03T06:17:36;2.90;96.90
30889;DHT22;51092;50.874;7.024;2023-04-03T06:18:39;3.00;96.70
30889;DHT22;51092;50.874;7.024;2023-04-03T06:19:42;2.90;96.90
30889;DHT22;51092;50.874;7.024;2023-04-03T06:20:44;3.00;96.80
30889;DHT22;51092;50.874;7.024;2023-04-03T06:21:46;3.00;96.70
30889;DHT22;51092;50.874;7.024;2023-04-03T06:22:49;3.00;96.60
30889;DHT22;51092;50.874;7.024;2023-04-03T06:23:51;3.00;96.40
30889;DHT22;51092;50.874;7.024;2023-04-03T06:24:54;3.00;96.30
30889;DHT22;51092;50.874;7.024;2023-04-03T06:25:55;3.10;96.20
30889;DHT22;51092;50.874;7.024;2023-04-03T06:26:58;3.10;96.20
30889;DHT22;51092;50.874;7.024;2023-04-03T06:28:01;3.20;96.00
30889;DHT22;51092;50.874;7.024;2023-04-03T06:29:03;3.20;95.90
30889;DHT22;51092;50.874;7.024;2023-04-03T06:30:07;3.20;96.00
30889;DHT22;51092;50.874;7.024;2023-04-03T06:31:08;3.20;95.80
30889;DHT22;51092;50.874;7.024;2023-04-03T06:32:11;3.20;96.00
30889;DHT22;51092;50.874;7.024;2023-04-03T06:33:13;3.30;95.80
30889;DHT22;51092;50.874;7.024;2023-04-03T06:34:15;3.30;95.70
30889;DHT22;51092;50.874;7.024;2023-04-03T06:35:19;3.30;95.60
30889;DHT22;51092;50.874;7.024;2023-04-03T06:36:20;3.30;95.60
30889;DHT22;51092;50.874;7.024;2023-04-03T06:37:23;3.40;95.70
30889;DHT22;51092;50.874;7.024;2023-04-03T06:38:29;3.40;95.30
30889;DHT22;51092;50.874;7.024;2023-04-03T06:39:30;3.40;95.30
30889;DHT22;51092;50.874;7.024;2023-04-03T06:40:33;3.40;95.30
30889;DHT22;51092;50.874;7.024;2023-04-03T06:41:36;3.40;95.30
30889;DHT22;51092;50.874;7.024;2023-04-03T06:42:38;3.50;95.00
30889;DHT22;51092;50.874;7.024;2023-04-03T06:43:41;3.50;95.00